Time;durP1;ratioP1;P1;durP2;ratioP2;P2;SDS_P1;SDS_P2;PMS_P1;PMS_P2;Temp;Humidity;BMP_temperature;BMP_pressure;BME280_temperature;BME280_humidity;BME280_pressure;Samples;Min_cycle;Max_cycle;Signal;HPM_P1;HPM_P2
2021/05/31 00:02:25;;;;;;;6.80;3.90;;;;;;;;;;3596848;40;20044;-61
2021/05/31 00:04:50;;;;;;;6.22;4.20;;;;;;;;;;3596569;40;20047;-61
2021/05/31 00:07:18;;;;;;;6.10;3.70;;;;;;;;;;3595072;40;20485;-61
2021/05/31 00:09:44;;;;;;;6.88;3.97;;;;;;;;;;3587090;40;20159;-61
2021/05/31 00:12:13;;;;;;;7.07;3.97;;;;;;;;;;3596905;40;20459;-61
2021/05/31 00:14:39;;;;;;;8.32;4.22;;;;;;;;;;3596433;40;20075;-61
2021/05/31 00:17:05;;;;;;;5.55;4.15;;;;;;;;;;3596177;40;20035;-61
2021/05/31 00:19:31;;;;;;;9.75;4.85;;;;;;;;;;3596035;39;20036;-61
2021/05/31 00:21:56;;;;;;;10.55;4.82;;;;;;;;;;3596969;40;20129;-61
2021/05/31 00:24:22;;;;;;;6.50;4.70;;;;;;;;;;3597444;40;20047;-61
2021/05/31 00:26:49;;;;;;;12.00;6.40;;;;;;;;;;3596297;39;20462;-61
2021/05/31 00:29:16;;;;;;;12.48;6.18;;;;;;;;;;3596132;40;20400;-61
2021/05/31 00:31:42;;;;;;;7.97;6.15;;;;;;;;;;3596983;40;20513;-61
2021/05/31 00:34:07;;;;;;;9.23;6.60;;;;;;;;;;3597177;39;20029;-61
2021/05/31 00:36:33;;;;;;;8.98;6.35;;;;;;;;;;3597183;40;20028;-61
2021/05/31 00:38:58;;;;;;;7.43;5.68;;;;;;;;;;3596776;40;20267;-61
2021/05/31 00:41:24;;;;;;;13.32;6.43;;;;;;;;;;3597128;40;20040;-61
2021/05/31 00:43:50;;;;;;;8.40;5.28;;;;;;;;;;3595936;39;20039;-61
2021/05/31 00:46:15;;;;;;;7.72;4.60;;;;;;;;;;3596368;40;20280;-61
2021/05/31 00:48:41;;;;;;;6.75;3.42;;;;;;;;;;3595689;40;20029;-61
2021/05/31 00:51:12;;;;;;;6.68;3.88;;;;;;;;;;3595091;39;20041;-61
2021/05/31 00:53:38;;;;;;;6.82;4.00;;;;;;;;;;3592264;39;20039;-61
2021/05/31 00:56:04;;;;;;;5.03;3.75;;;;;;;;;;3585274;40;20040;-61
2021/05/31 00:58:30;;;;;;;11.70;3.92;;;;;;;;;;3594574;40;20043;-61
2021/05/31 01:00:57;;;;;;;5.88;3.75;;;;;;;;;;3592134;39;20390;-61
2021/05/31 01:03:24;;;;;;;8.60;4.53;;;;;;;;;;3593345;40;20634;-61
2021/05/31 01:05:50;;;;;;;8.10;4.28;;;;;;;;;;3594048;39;20048;-61
2021/05/31 01:08:23;;;;;;;10.27;4.32;;;;;;;;;;3592105;40;20056;-61
2021/05/31 01:11:11;;;;;;;8.43;5.10;;;;;;;;;;3591335;40;20693;-61
2021/05/31 01:13:52;;;;;;;8.55;4.30;;;;;;;;;;3592868;40;20039;-61
2021/05/31 01:16:29;;;;;;;8.88;4.43;;;;;;;;;;3592645;40;20133;-61
2021/05/31 01:18:59;;;;;;;6.68;4.00;;;;;;;;;;3592799;39;20032;-61
2021/05/31 01:21:52;;;;;;;6.72;4.70;;;;;;;;;;3594175;39;20289;-61
2021/05/31 01:24:45;;;;;;;5.63;4.20;;;;;;;;;;3588403;40;20128;-61
2021/05/31 01:27:22;;;;;;;6.03;4.57;;;;;;;;;;3595077;40;20413;-61
2021/05/31 01:29:53;;;;;;;8.32;4.30;;;;;;;;;;3593486;40;20275;-61
2021/05/31 01:32:25;;;;;;;7.25;3.85;;;;;;;;;;3596386;39;20109;-61
2021/05/31 01:34:52;;;;;;;6.38;4.50;;;;;;;;;;3595437;40;20136;-61
2021/05/31 01:37:22;;;;;;;9.02;4.38;;;;;;;;;;3586643;40;20039;-61
2021/05/31 01:39:52;;;;;;;8.63;4.30;;;;;;;;;;3593391;39;20059;-61
2021/05/31 01:42:19;;;;;;;9.32;4.30;;;;;;;;;;3596466;40;20051;-61
2021/05/31 01:44:48;;;;;;;6.75;4.70;;;;;;;;;;3595041;40;20499;-61
2021/05/31 01:47:14;;;;;;;8.90;4.75;;;;;;;;;;3595990;40;20040;-61
2021/05/31 01:49:40;;;;;;;6.00;4.43;;;;;;;;;;3595128;39;20245;-61
2021/05/31 01:52:07;;;;;;;7.82;4.47;;;;;;;;;;3596266;40;20137;-61
2021/05/31 01:54:33;;;;;;;5.85;4.20;;;;;;;;;;3595301;40;20027;-61
2021/05/31 01:57:00;;;;;;;7.40;4.60;;;;;;;;;;3596208;39;20113;-61
2021/05/31 01:59:26;;;;;;;7.10;3.90;;;;;;;;;;3586369;40;20064;-61
2021/05/31 02:01:54;;;;;;;11.77;4.82;;;;;;;;;;3596657;39;20125;-61
2021/05/31 02:04:21;;;;;;;8.65;4.20;;;;;;;;;;3595425;39;20283;-61
2021/05/31 02:06:49;;;;;;;6.22;4.18;;;;;;;;;;3596404;39;20028;-61
2021/05/31 02:09:14;;;;;;;6.07;4.32;;;;;;;;;;3595833;39;20028;-60
2021/05/31 02:11:43;;;;;;;8.50;4.07;;;;;;;;;;3595656;40;20047;-61
2021/05/31 02:14:32;;;;;;;6.20;3.88;;;;;;;;;;3596007;39;20059;-61
2021/05/31 02:17:05;;;;;;;6.18;4.32;;;;;;;;;;3593632;39;20024;-61
2021/05/31 02:19:34;;;;;;;6.32;4.22;;;;;;;;;;3594322;40;20031;-61
2021/05/31 02:22:02;;;;;;;6.00;4.25;;;;;;;;;;3594773;39;20044;-61
2021/05/31 02:24:31;;;;;;;8.20;4.15;;;;;;;;;;3594231;39;20035;-61
2021/05/31 02:26:57;;;;;;;6.85;4.80;;;;;;;;;;3595336;40;20057;-61
2021/05/31 02:29:23;;;;;;;7.32;4.88;;;;;;;;;;3593751;40;20035;-61
2021/05/31 02:31:51;;;;;;;6.97;4.32;;;;;;;;;;3595580;40;20557;-61
2021/05/31 02:34:17;;;;;;;9.70;5.03;;;;;;;;;;3595701;40;20059;-61
2021/05/31 02:36:42;;;;;;;10.20;4.32;;;;;;;;;;3594576;40;20044;-61
2021/05/31 02:39:08;;;;;;;8.15;4.45;;;;;;;;;;3593434;40;20056;-61
2021/05/31 02:41:33;;;;;;;8.93;4.78;;;;;;;;;;3592939;40;20380;-61
2021/05/31 02:43:58;;;;;;;7.72;4.60;;;;;;;;;;3586532;40;20028;-61
2021/05/31 02:46:24;;;;;;;6.13;4.95;;;;;;;;;;3595620;40;20038;-62
2021/05/31 02:48:49;;;;;;;5.90;4.93;;;;;;;;;;3592886;40;20036;-62
2021/05/31 02:51:15;;;;;;;6.65;4.85;;;;;;;;;;3594076;40;20051;-60
2021/05/31 02:53:40;;;;;;;13.05;5.63;;;;;;;;;;3594558;40;20051;-61
2021/05/31 02:56:07;;;;;;;6.93;5.07;;;;;;;;;;3595175;39;20118;-61
2021/05/31 02:58:32;;;;;;;6.55;5.57;;;;;;;;;;3592958;40;20051;-61
2021/05/31 03:00:58;;;;;;;9.50;5.28;;;;;;;;;;3585832;40;20169;-61
2021/05/31 03:03:23;;;;;;;8.70;5.85;;;;;;;;;;3595820;40;20044;-61
2021/05/31 03:05:48;;;;;;;9.75;5.88;;;;;;;;;;3594183;40;20040;-61
2021/05/31 03:08:14;;;;;;;7.28;5.45;;;;;;;;;;3584459;40;20064;-61
2021/05/31 03:10:39;;;;;;;6.18;5.13;;;;;;;;;;3595043;40;20040;-61
2021/05/31 03:13:05;;;;;;;6.82;5.13;;;;;;;;;;3595835;40;20028;-61
2021/05/31 03:15:31;;;;;;;10.27;4.88;;;;;;;;;;3593731;40;20290;-61
2021/05/31 03:17:56;;;;;;;7.07;5.20;;;;;;;;;;3595633;40;20136;-61
2021/05/31 03:20:25;;;;;;;8.20;5.20;;;;;;;;;;3595974;40;20355;-61
2021/05/31 03:22:51;;;;;;;7.97;5.05;;;;;;;;;;3595377;39;20201;-61
2021/05/31 03:25:16;;;;;;;7.32;4.90;;;;;;;;;;3595599;40;20068;-61
2021/05/31 03:27:42;;;;;;;9.55;4.80;;;;;;;;;;3595472;40;20028;-61
2021/05/31 03:30:11;;;;;;;6.95;5.40;;;;;;;;;;3595785;40;20032;-61
2021/05/31 03:32:38;;;;;;;7.13;5.63;;;;;;;;;;3595631;40;20036;-61
2021/05/31 03:35:05;;;;;;;10.70;7.20;;;;;;;;;;3595346;39;20540;-61
2021/05/31 03:37:30;;;;;;;8.85;5.75;;;;;;;;;;3595233;40;20040;-60
2021/05/31 03:39:56;;;;;;;8.45;5.88;;;;;;;;;;3595863;39;20040;-60
2021/05/31 03:42:21;;;;;;;6.88;5.70;;;;;;;;;;3596352;40;20121;-60
2021/05/31 03:44:47;;;;;;;7.88;5.55;;;;;;;;;;3584174;40;20040;-60
2021/05/31 03:47:12;;;;;;;6.72;5.32;;;;;;;;;;3595777;40;20040;-61
2021/05/31 03:49:38;;;;;;;6.00;5.03;;;;;;;;;;3594032;40;20036;-61
2021/05/31 03:52:03;;;;;;;7.72;4.78;;;;;;;;;;3593975;40;20051;-61
2021/05/31 03:54:29;;;;;;;6.68;5.20;;;;;;;;;;3594033;40;20020;-61
2021/05/31 03:56:55;;;;;;;9.23;5.00;;;;;;;;;;3586208;40;20044;-61
2021/05/31 03:59:22;;;;;;;7.82;4.75;;;;;;;;;;3585692;40;20062;-61
2021/05/31 04:01:48;;;;;;;9.98;4.80;;;;;;;;;;3594223;40;20036;-60
2021/05/31 04:04:14;;;;;;;8.85;5.13;;;;;;;;;;3594903;40;20127;-60
2021/05/31 04:11:49;;;;;;;7.85;5.65;;;;;;;;;;3592832;40;20068;-60
2021/05/31 04:14:17;;;;;;;6.55;4.78;;;;;;;;;;3595726;40;20201;-61
2021/05/31 04:16:47;;;;;;;7.03;5.25;;;;;;;;;;3593432;40;20029;-61
2021/05/31 04:19:13;;;;;;;7.95;5.65;;;;;;;;;;3592657;40;20300;-61
2021/05/31 04:21:42;;;;;;;6.50;4.93;;;;;;;;;;3593450;39;20040;-60
2021/05/31 04:24:07;;;;;;;7.82;5.38;;;;;;;;;;3584988;40;20036;-61
2021/05/31 04:26:34;;;;;;;8.68;5.53;;;;;;;;;;3593804;39;20092;-61
2021/05/31 04:29:00;;;;;;;15.45;5.60;;;;;;;;;;3592732;40;20036;-61
2021/05/31 04:31:26;;;;;;;5.85;5.25;;;;;;;;;;3585524;40;20155;-60
2021/05/31 04:33:51;;;;;;;6.05;4.95;;;;;;;;;;3584672;40;20407;-60
2021/05/31 04:36:18;;;;;;;8.45;5.22;;;;;;;;;;3593595;39;20363;-60
2021/05/31 04:38:43;;;;;;;8.40;5.38;;;;;;;;;;3591771;40;20062;-61
2021/05/31 04:41:08;;;;;;;6.35;5.22;;;;;;;;;;3595447;40;20292;-60
2021/05/31 04:43:34;;;;;;;7.28;5.22;;;;;;;;;;3593500;40;20055;-60
2021/05/31 04:46:00;;;;;;;5.75;4.50;;;;;;;;;;3593336;39;20132;-60
2021/05/31 04:48:25;;;;;;;8.75;4.95;;;;;;;;;;3596030;40;20052;-60
2021/05/31 04:50:56;;;;;;;7.10;4.60;;;;;;;;;;3597157;40;20044;-61
2021/05/31 04:53:23;;;;;;;6.88;5.38;;;;;;;;;;3596829;40;20079;-61
2021/05/31 04:55:48;;;;;;;6.97;5.65;;;;;;;;;;3596388;39;20111;-61
2021/05/31 04:58:13;;;;;;;8.43;5.50;;;;;;;;;;3596349;40;20263;-61
2021/05/31 05:00:39;;;;;;;9.00;5.05;;;;;;;;;;3595287;40;20109;-61
2021/05/31 05:03:04;;;;;;;14.75;5.63;;;;;;;;;;3596691;39;20527;-61
2021/05/31 05:05:29;;;;;;;8.77;4.82;;;;;;;;;;3596183;40;20054;-61
2021/05/31 05:07:55;;;;;;;7.45;5.05;;;;;;;;;;3595939;40;20035;-61
2021/05/31 05:10:22;;;;;;;8.43;5.40;;;;;;;;;;3596815;40;20064;-61
2021/05/31 05:12:50;;;;;;;6.82;5.00;;;;;;;;;;3596100;39;20044;-61
2021/05/31 05:15:18;;;;;;;10.05;5.78;;;;;;;;;;3597434;40;20268;-61
2021/05/31 05:17:45;;;;;;;8.05;5.43;;;;;;;;;;3596141;40;20044;-61
2021/05/31 05:20:11;;;;;;;7.55;4.75;;;;;;;;;;3595759;40;20049;-61
2021/05/31 05:22:37;;;;;;;8.30;5.53;;;;;;;;;;3594514;39;20267;-61
2021/05/31 05:25:03;;;;;;;11.88;5.18;;;;;;;;;;3595145;40;20032;-61
2021/05/31 05:27:28;;;;;;;7.75;4.45;;;;;;;;;;3595012;40;20025;-61
2021/05/31 05:29:54;;;;;;;15.82;4.60;;;;;;;;;;3593833;39;20044;-61
2021/05/31 05:32:19;;;;;;;9.25;7.05;;;;;;;;;;3595195;39;20032;-61
2021/05/31 05:34:45;;;;;;;8.52;6.68;;;;;;;;;;3595710;40;20039;-61
2021/05/31 05:37:25;;;;;;;7.70;5.53;;;;;;;;;;3594718;39;20048;-61
2021/05/31 05:47:52;;;;;;;7.93;4.30;;;;;;;;;;3592903;39;20279;-62
2021/05/31 05:50:21;;;;;;;6.18;4.05;;;;;;;;;;3593122;40;20028;-62
2021/05/31 05:52:47;;;;;;;8.00;4.50;;;;;;;;;;3595743;40;20040;-62
2021/05/31 05:55:14;;;;;;;15.98;10.75;;;;;;;;;;3595950;40;20101;-62
2021/05/31 05:57:40;;;;;;;10.95;6.07;;;;;;;;;;3591404;40;20372;-62
2021/05/31 06:00:09;;;;;;;7.65;4.93;;;;;;;;;;3594075;40;20072;-62
2021/05/31 06:02:34;;;;;;;8.00;4.95;;;;;;;;;;3595090;40;20028;-61
2021/05/31 06:05:00;;;;;;;7.13;4.28;;;;;;;;;;3594649;39;20429;-61
2021/05/31 06:07:25;;;;;;;10.50;5.18;;;;;;;;;;3592578;40;20053;-60
2021/05/31 06:09:51;;;;;;;9.73;5.40;;;;;;;;;;3594528;40;20184;-62
2021/05/31 06:12:16;;;;;;;7.65;4.50;;;;;;;;;;3595648;39;20047;-60
2021/05/31 06:14:43;;;;;;;6.28;3.70;;;;;;;;;;3593743;39;20032;-60
2021/05/31 06:17:08;;;;;;;7.38;3.65;;;;;;;;;;3594409;40;20591;-60
2021/05/31 06:19:33;;;;;;;6.22;3.40;;;;;;;;;;3594194;40;20110;-60
2021/05/31 06:21:59;;;;;;;6.13;3.47;;;;;;;;;;3595871;39;20038;-61
2021/05/31 06:24:24;;;;;;;6.57;3.55;;;;;;;;;;3596409;40;20113;-61
2021/05/31 06:26:50;;;;;;;6.10;3.05;;;;;;;;;;3596384;40;20046;-61
2021/05/31 06:29:15;;;;;;;4.65;2.75;;;;;;;;;;3596159;40;20360;-61
2021/05/31 06:31:40;;;;;;;5.80;3.10;;;;;;;;;;3596446;39;20036;-61
2021/05/31 06:34:06;;;;;;;7.28;3.33;;;;;;;;;;3596936;40;20044;-61
2021/05/31 06:36:34;;;;;;;5.65;3.10;;;;;;;;;;3596514;40;20113;-61
2021/05/31 06:38:59;;;;;;;7.55;3.75;;;;;;;;;;3594849;39;20072;-61
2021/05/31 06:41:25;;;;;;;5.40;3.45;;;;;;;;;;3596634;40;20369;-61
2021/05/31 06:43:50;;;;;;;10.52;7.45;;;;;;;;;;3596834;39;20045;-62
2021/05/31 06:46:16;;;;;;;14.55;11.05;;;;;;;;;;3594883;40;20279;-62
2021/05/31 06:48:41;;;;;;;6.90;4.00;;;;;;;;;;3595547;39;20036;-62
2021/05/31 06:51:07;;;;;;;4.72;3.00;;;;;;;;;;3595960;40;20121;-62
2021/05/31 06:53:32;;;;;;;10.18;3.40;;;;;;;;;;3585430;40;20080;-62
2021/05/31 06:55:58;;;;;;;4.97;2.72;;;;;;;;;;3596620;40;20117;-62
2021/05/31 06:58:23;;;;;;;5.65;2.85;;;;;;;;;;3593349;39;20025;-62
2021/05/31 07:00:49;;;;;;;6.43;2.85;;;;;;;;;;3594214;40;20044;-62
2021/05/31 07:03:14;;;;;;;6.47;3.15;;;;;;;;;;3586034;40;20363;-62
2021/05/31 07:05:40;;;;;;;6.22;3.40;;;;;;;;;;3595377;40;20141;-61
2021/05/31 07:08:06;;;;;;;6.53;3.22;;;;;;;;;;3593624;39;20036;-62
2021/05/31 07:10:31;;;;;;;7.13;3.25;;;;;;;;;;3592779;39;20294;-62
2021/05/31 07:12:57;;;;;;;5.68;3.03;;;;;;;;;;3595696;40;20047;-62
2021/05/31 07:15:24;;;;;;;4.15;2.75;;;;;;;;;;3594904;39;20188;-62
2021/05/31 07:17:50;;;;;;;7.32;2.72;;;;;;;;;;3592469;40;20040;-62
2021/05/31 07:20:16;;;;;;;3.50;2.33;;;;;;;;;;3594831;40;20374;-62
2021/05/31 07:22:43;;;;;;;5.57;3.13;;;;;;;;;;3595817;40;20072;-61
2021/05/31 07:25:10;;;;;;;5.40;2.80;;;;;;;;;;3594615;39;20043;-62
2021/05/31 07:27:36;;;;;;;4.97;2.63;;;;;;;;;;3591803;40;20039;-61
2021/05/31 07:30:06;;;;;;;4.50;2.70;;;;;;;;;;3593672;40;20083;-62
2021/05/31 07:32:32;;;;;;;3.60;2.25;;;;;;;;;;3593262;39;20041;-62
2021/05/31 07:34:57;;;;;;;7.85;2.70;;;;;;;;;;3594681;40;20121;-62
2021/05/31 07:37:23;;;;;;;7.20;2.53;;;;;;;;;;3592238;40;20125;-61
2021/05/31 07:39:48;;;;;;;5.25;3.22;;;;;;;;;;3593610;40;20055;-61
2021/05/31 07:42:14;;;;;;;4.05;2.35;;;;;;;;;;3595377;39;20048;-61
2021/05/31 07:44:39;;;;;;;4.57;2.10;;;;;;;;;;3594091;40;20040;-61
2021/05/31 07:47:05;;;;;;;4.97;2.60;;;;;;;;;;3595432;39;20044;-62
2021/05/31 07:49:30;;;;;;;5.05;2.63;;;;;;;;;;3595867;40;20062;-61
2021/05/31 07:51:59;;;;;;;5.25;2.53;;;;;;;;;;3594758;39;20036;-61
2021/05/31 07:54:25;;;;;;;5.07;2.38;;;;;;;;;;3595492;40;20036;-61
2021/05/31 07:56:51;;;;;;;3.75;2.30;;;;;;;;;;3595237;40;20359;-61
2021/05/31 07:59:16;;;;;;;7.70;2.35;;;;;;;;;;3586640;40;20072;-61
2021/05/31 08:01:42;;;;;;;6.93;2.53;;;;;;;;;;3594577;39;20032;-61
2021/05/31 08:04:07;;;;;;;4.45;2.40;;;;;;;;;;3595200;40;20039;-61
2021/05/31 08:06:36;;;;;;;6.43;2.65;;;;;;;;;;3595055;39;20109;-62
2021/05/31 08:09:05;;;;;;;5.13;2.20;;;;;;;;;;3594741;39;20062;-62
2021/05/31 08:11:31;;;;;;;4.80;2.40;;;;;;;;;;3595294;40;20046;-62
2021/05/31 08:13:57;;;;;;;8.45;3.78;;;;;;;;;;3595556;39;20618;-62
2021/05/31 08:16:22;;;;;;;4.38;1.90;;;;;;;;;;3595306;40;20041;-62
2021/05/31 08:18:48;;;;;;;5.43;3.00;;;;;;;;;;3593369;39;20267;-62
2021/05/31 08:21:13;;;;;;;5.70;2.30;;;;;;;;;;3593764;40;20390;-62
2021/05/31 08:23:40;;;;;;;5.53;2.20;;;;;;;;;;3597042;40;20081;-60
2021/05/31 08:26:05;;;;;;;4.50;2.13;;;;;;;;;;3597659;40;20028;-62
2021/05/31 08:28:31;;;;;;;5.45;2.78;;;;;;;;;;3594540;39;20372;-61
2021/05/31 08:30:57;;;;;;;4.78;2.17;;;;;;;;;;3595877;39;20084;-62
2021/05/31 08:33:23;;;;;;;6.32;1.98;;;;;;;;;;3595060;40;20039;-61
2021/05/31 08:35:48;;;;;;;3.53;1.90;;;;;;;;;;3595560;40;20472;-61
2021/05/31 08:38:14;;;;;;;4.07;1.90;;;;;;;;;;3594369;39;20043;-62
2021/05/31 08:40:39;;;;;;;3.60;2.08;;;;;;;;;;3594713;40;20048;-61
2021/05/31 08:43:06;;;;;;;4.95;2.20;;;;;;;;;;3596230;40;20036;-61
2021/05/31 08:45:32;;;;;;;3.20;1.95;;;;;;;;;;3595566;39;20052;-61
2021/05/31 08:47:59;;;;;;;6.28;2.08;;;;;;;;;;3594944;40;20074;-62
2021/05/31 08:50:31;;;;;;;3.35;1.60;;;;;;;;;;3595068;39;20032;-62
2021/05/31 08:52:56;;;;;;;6.90;2.33;;;;;;;;;;3595717;39;20035;-62
2021/05/31 08:55:25;;;;;;;5.30;2.28;;;;;;;;;;3595759;40;20068;-62
2021/05/31 08:57:50;;;;;;;3.83;2.20;;;;;;;;;;3593628;40;20052;-62
2021/05/31 09:00:19;;;;;;;6.38;2.47;;;;;;;;;;3594681;40;20043;-62
2021/05/31 09:02:45;;;;;;;11.50;2.50;;;;;;;;;;3595605;39;20040;-60
2021/05/31 09:05:10;;;;;;;4.15;1.90;;;;;;;;;;3595820;39;20039;-60
2021/05/31 09:07:36;;;;;;;4.32;2.42;;;;;;;;;;3592853;39;20040;-60
2021/05/31 09:10:07;;;;;;;4.20;2.28;;;;;;;;;;3593857;39;20044;-61
2021/05/31 09:12:36;;;;;;;5.30;2.45;;;;;;;;;;3594777;39;20027;-60
2021/05/31 09:15:11;;;;;;;9.53;2.67;;;;;;;;;;3587581;40;20036;-61
2021/05/31 09:17:41;;;;;;;5.82;2.20;;;;;;;;;;3595174;39;20127;-62
2021/05/31 09:20:09;;;;;;;4.65;2.50;;;;;;;;;;3594691;39;20062;-62
2021/05/31 09:22:48;;;;;;;6.40;2.58;;;;;;;;;;3596414;39;20115;-61
2021/05/31 09:25:35;;;;;;;5.28;2.50;;;;;;;;;;3595050;40;20157;-60
2021/05/31 09:28:11;;;;;;;5.70;2.45;;;;;;;;;;3594228;39;20148;-61
2021/05/31 09:30:39;;;;;;;5.28;2.53;;;;;;;;;;3596463;40;20044;-62
2021/05/31 09:33:12;;;;;;;4.10;2.58;;;;;;;;;;3595924;39;20048;-62
2021/05/31 09:35:40;;;;;;;4.38;2.10;;;;;;;;;;3593701;40;20032;-62
2021/05/31 09:38:06;;;;;;;3.88;2.08;;;;;;;;;;3593528;39;20044;-62
2021/05/31 09:40:31;;;;;;;4.15;2.00;;;;;;;;;;3595596;39;20135;-61
2021/05/31 09:42:59;;;;;;;4.50;2.42;;;;;;;;;;3595969;40;20044;-62
2021/05/31 09:45:26;;;;;;;3.10;2.05;;;;;;;;;;3595954;39;20056;-61
2021/05/31 09:47:52;;;;;;;8.32;2.67;;;;;;;;;;3592744;39;20056;-61
2021/05/31 09:50:29;;;;;;;3.72;1.95;;;;;;;;;;3596907;40;20079;-61
2021/05/31 09:53:10;;;;;;;6.10;3.72;;;;;;;;;;3596790;39;20048;-60
2021/05/31 09:55:38;;;;;;;4.68;2.70;;;;;;;;;;3594926;39;20039;-61
2021/05/31 09:58:11;;;;;;;7.82;3.33;;;;;;;;;;3594801;39;20040;-62
2021/05/31 10:00:39;;;;;;;8.85;2.80;;;;;;;;;;3594325;40;20036;-61
2021/05/31 10:05:59;;;;;;;5.03;2.45;;;;;;;;;;3595307;39;20049;-61
2021/05/31 10:11:00;;;;;;;4.30;2.55;;;;;;;;;;3594196;39;20021;-62
2021/05/31 10:13:27;;;;;;;5.22;2.35;;;;;;;;;;3594718;39;20036;-62
2021/05/31 10:15:53;;;;;;;5.40;2.53;;;;;;;;;;3594833;40;20259;-61
2021/05/31 10:18:19;;;;;;;4.45;2.40;;;;;;;;;;3593071;39;20040;-62
2021/05/31 10:20:46;;;;;;;5.47;2.35;;;;;;;;;;3592901;40;20052;-62
2021/05/31 10:23:13;;;;;;;5.07;2.40;;;;;;;;;;3594966;39;20602;-60
2021/05/31 10:25:44;;;;;;;6.43;2.40;;;;;;;;;;3592125;39;20054;-60
2021/05/31 10:28:14;;;;;;;7.55;2.28;;;;;;;;;;3593760;39;20046;-61
2021/05/31 10:30:49;;;;;;;4.07;2.05;;;;;;;;;;3595341;39;20055;-60
2021/05/31 10:33:16;;;;;;;5.85;2.90;;;;;;;;;;3596047;39;20121;-59
2021/05/31 10:35:41;;;;;;;4.07;2.45;;;;;;;;;;3594848;39;20051;-60
2021/05/31 10:38:17;;;;;;;4.78;2.42;;;;;;;;;;3594668;39;20379;-60
2021/05/31 10:40:45;;;;;;;5.43;2.70;;;;;;;;;;3595954;39;20106;-60
2021/05/31 10:43:12;;;;;;;3.38;1.95;;;;;;;;;;3593607;39;20048;-61
2021/05/31 10:45:39;;;;;;;5.43;2.33;;;;;;;;;;3591903;39;20037;-61
2021/05/31 10:48:15;;;;;;;6.15;2.90;;;;;;;;;;3592699;40;20020;-61
2021/05/31 10:50:49;;;;;;;4.82;2.25;;;;;;;;;;3594537;39;20379;-61
2021/05/31 10:53:18;;;;;;;4.80;2.50;;;;;;;;;;3594840;39;20290;-61
2021/05/31 10:55:52;;;;;;;5.85;2.63;;;;;;;;;;3593379;39;20040;-60
2021/05/31 10:58:20;;;;;;;4.57;2.50;;;;;;;;;;3595698;39;20036;-61
2021/05/31 11:01:00;;;;;;;4.07;2.47;;;;;;;;;;3596169;39;20296;-61
2021/05/31 11:03:26;;;;;;;4.20;2.27;;;;;;;;;;3596564;39;20307;-61
2021/05/31 11:05:51;;;;;;;4.78;2.35;;;;;;;;;;3596351;39;20187;-61
2021/05/31 11:08:28;;;;;;;3.83;2.30;;;;;;;;;;3595369;39;20028;-61
2021/05/31 11:11:01;;;;;;;9.68;2.90;;;;;;;;;;3596339;39;20047;-61
2021/05/31 11:13:27;;;;;;;4.13;2.22;;;;;;;;;;3595257;39;20036;-62
2021/05/31 11:16:01;;;;;;;4.93;2.33;;;;;;;;;;3595923;39;20117;-61
2021/05/31 11:18:32;;;;;;;5.13;2.20;;;;;;;;;;3594831;39;20117;-61
2021/05/31 11:21:00;;;;;;;5.97;2.97;;;;;;;;;;3596414;39;20044;-63
2021/05/31 11:23:25;;;;;;;4.47;2.67;;;;;;;;;;3595639;39;20073;-62
2021/05/31 11:25:51;;;;;;;4.53;2.88;;;;;;;;;;3596197;39;20040;-62
2021/05/31 11:28:17;;;;;;;5.38;2.45;;;;;;;;;;3595690;39;20046;-62
2021/05/31 11:30:43;;;;;;;3.92;2.25;;;;;;;;;;3595354;39;20044;-61
2021/05/31 11:33:08;;;;;;;5.57;2.72;;;;;;;;;;3595961;39;20043;-61
2021/05/31 11:35:35;;;;;;;4.82;2.45;;;;;;;;;;3595804;39;20364;-61
2021/05/31 11:38:01;;;;;;;4.85;2.65;;;;;;;;;;3594930;39;20032;-62
2021/05/31 11:40:29;;;;;;;4.82;2.35;;;;;;;;;;3593438;39;20066;-61
2021/05/31 11:42:57;;;;;;;4.60;2.38;;;;;;;;;;3595727;39;20052;-61
2021/05/31 11:45:24;;;;;;;4.60;2.08;;;;;;;;;;3595270;39;20047;-62
2021/05/31 11:47:58;;;;;;;4.22;2.08;;;;;;;;;;3593469;39;20042;-63
2021/05/31 11:50:24;;;;;;;4.05;2.20;;;;;;;;;;3594167;39;20043;-62
2021/05/31 11:52:50;;;;;;;3.92;2.00;;;;;;;;;;3595788;39;20151;-61
2021/05/31 11:55:19;;;;;;;4.50;2.03;;;;;;;;;;3595236;39;20648;-61
2021/05/31 11:57:45;;;;;;;3.80;2.00;;;;;;;;;;3594553;39;20036;-61
2021/05/31 12:00:16;;;;;;;5.03;2.40;;;;;;;;;;3596448;39;20378;-61
2021/05/31 12:02:41;;;;;;;4.05;2.20;;;;;;;;;;3596990;39;20072;-61
2021/05/31 12:05:07;;;;;;;4.25;2.22;;;;;;;;;;3596260;39;20032;-62
2021/05/31 12:07:38;;;;;;;3.83;1.73;;;;;;;;;;3593562;39;20272;-61
2021/05/31 12:10:04;;;;;;;5.50;2.10;;;;;;;;;;3596561;39;20483;-61
2021/05/31 12:12:29;;;;;;;4.60;2.30;;;;;;;;;;3595324;39;20040;-61
2021/05/31 12:14:57;;;;;;;4.43;2.17;;;;;;;;;;3594514;39;20040;-61
2021/05/31 12:17:27;;;;;;;3.58;2.00;;;;;;;;;;3593933;39;20044;-61
2021/05/31 12:19:53;;;;;;;3.90;2.10;;;;;;;;;;3596880;40;20036;-61
2021/05/31 12:22:21;;;;;;;5.15;2.40;;;;;;;;;;3596546;40;20039;-61
2021/05/31 12:24:49;;;;;;;6.50;2.20;;;;;;;;;;3594912;39;20037;-61
2021/05/31 12:27:20;;;;;;;4.63;2.25;;;;;;;;;;3594649;39;20047;-61
2021/05/31 12:29:46;;;;;;;4.45;2.17;;;;;;;;;;3596344;40;20486;-61
2021/05/31 12:32:15;;;;;;;4.60;2.15;;;;;;;;;;3596641;39;20059;-61
2021/05/31 12:34:41;;;;;;;6.60;2.25;;;;;;;;;;3596474;39;22223;-61
2021/05/31 12:37:11;;;;;;;3.67;2.17;;;;;;;;;;3596338;39;20051;-61
2021/05/31 12:39:44;;;;;;;;;;;;;;;;;;3597125;40;20044;-61
2021/05/31 12:42:10;;;;;;;5.43;2.15;;;;;;;;;;3596268;39;19936;-61
2021/05/31 12:44:37;;;;;;;3.65;1.98;;;;;;;;;;3587117;40;20655;-61
2021/05/31 12:47:09;;;;;;;3.50;1.95;;;;;;;;;;3595817;40;20028;-61
2021/05/31 12:49:34;;;;;;;4.07;1.90;;;;;;;;;;3595982;39;20137;-62
2021/05/31 12:52:00;;;;;;;4.25;2.15;;;;;;;;;;3596076;39;20052;-62
2021/05/31 12:54:29;;;;;;;3.33;2.03;;;;;;;;;;3595122;40;20028;-61
2021/05/31 12:57:17;;;;;;;3.45;1.83;;;;;;;;;;3596465;40;20044;-61
2021/05/31 12:59:47;;;;;;;3.33;1.98;;;;;;;;;;3594294;39;20035;-61
2021/05/31 13:02:17;;;;;;;5.45;1.88;;;;;;;;;;3595306;39;20524;-61
2021/05/31 13:04:42;;;;;;;4.72;2.25;;;;;;;;;;3596534;40;20596;-61
2021/05/31 13:07:16;;;;;;;4.13;2.17;;;;;;;;;;3594599;39;20045;-62
2021/05/31 13:09:42;;;;;;;5.53;2.00;;;;;;;;;;3594044;40;20048;-62
2021/05/31 13:12:08;;;;;;;3.58;2.10;;;;;;;;;;3596143;40;20032;-62
2021/05/31 13:14:41;;;;;;;3.55;1.88;;;;;;;;;;3596196;39;20042;-62
2021/05/31 13:17:08;;;;;;;4.57;2.00;;;;;;;;;;3594247;39;20032;-62
2021/05/31 13:19:38;;;;;;;3.65;1.67;;;;;;;;;;3593900;39;20306;-62
2021/05/31 13:22:17;;;;;;;3.40;1.83;;;;;;;;;;3595905;40;20137;-61
2021/05/31 13:24:50;;;;;;;4.88;2.10;;;;;;;;;;3594670;39;20039;-62
2021/05/31 13:27:18;;;;;;;3.15;1.70;;;;;;;;;;3593030;39;20043;-61
2021/05/31 13:30:03;;;;;;;4.35;1.98;;;;;;;;;;3594152;40;20232;-61
2021/05/31 13:32:29;;;;;;;3.72;1.60;;;;;;;;;;3595517;40;20064;-61
2021/05/31 13:35:06;;;;;;;4.90;2.17;;;;;;;;;;3593629;39;20047;-61
2021/05/31 13:37:33;;;;;;;3.80;2.05;;;;;;;;;;3595526;40;20375;-61
2021/05/31 13:40:02;;;;;;;6.53;2.33;;;;;;;;;;3595462;40;20824;-61
2021/05/31 13:42:29;;;;;;;6.78;2.00;;;;;;;;;;3595294;39;20056;-61
2021/05/31 13:45:05;;;;;;;4.22;2.03;;;;;;;;;;3594794;40;20133;-61
2021/05/31 13:47:32;;;;;;;4.68;2.05;;;;;;;;;;3593484;39;20193;-61
2021/05/31 13:49:57;;;;;;;3.17;1.50;;;;;;;;;;3587419;40;20072;-62
2021/05/31 13:52:22;;;;;;;3.55;1.85;;;;;;;;;;3595109;39;20048;-61
2021/05/31 13:54:48;;;;;;;3.33;1.95;;;;;;;;;;3593716;40;20379;-61
2021/05/31 13:57:13;;;;;;;7.25;2.00;;;;;;;;;;3594704;39;20125;-61
2021/05/31 13:59:38;;;;;;;4.63;1.90;;;;;;;;;;3595151;39;20272;-61
2021/05/31 14:02:04;;;;;;;4.13;1.88;;;;;;;;;;3586934;40;20132;-61
2021/05/31 14:04:29;;;;;;;7.40;2.17;;;;;;;;;;3595779;39;20275;-61
2021/05/31 14:06:54;;;;;;;3.25;1.98;;;;;;;;;;3595664;39;20079;-61
2021/05/31 14:09:20;;;;;;;3.67;2.00;;;;;;;;;;3595675;39;20031;-61
2021/05/31 14:11:45;;;;;;;5.95;1.92;;;;;;;;;;3595538;39;20043;-61
2021/05/31 14:14:11;;;;;;;15.27;2.20;;;;;;;;;;3596532;40;20036;-62
2021/05/31 14:16:36;;;;;;;3.78;1.90;;;;;;;;;;3595036;39;20043;-62
2021/05/31 14:19:01;;;;;;;3.28;2.00;;;;;;;;;;3596332;40;20299;-61
2021/05/31 14:21:27;;;;;;;3.30;1.40;;;;;;;;;;3597085;40;20236;-62
2021/05/31 14:23:52;;;;;;;4.10;1.58;;;;;;;;;;3596527;40;20036;-62
2021/05/31 14:26:18;;;;;;;2.47;1.40;;;;;;;;;;3594886;39;20048;-62
2021/05/31 14:28:43;;;;;;;4.97;2.05;;;;;;;;;;3596726;40;20028;-62
2021/05/31 14:31:09;;;;;;;3.50;1.80;;;;;;;;;;3596312;40;20340;-61
2021/05/31 14:33:34;;;;;;;3.45;1.70;;;;;;;;;;3596143;40;20042;-61
2021/05/31 14:36:01;;;;;;;7.57;1.90;;;;;;;;;;3595583;39;20039;-62
2021/05/31 14:38:28;;;;;;;4.43;2.17;;;;;;;;;;3593495;40;20036;-61
2021/05/31 14:40:54;;;;;;;3.00;1.65;;;;;;;;;;3594655;39;20044;-61
2021/05/31 14:43:19;;;;;;;3.70;2.00;;;;;;;;;;3595870;39;20359;-62
2021/05/31 14:45:44;;;;;;;4.53;1.83;;;;;;;;;;3594212;40;20029;-61
2021/05/31 14:48:10;;;;;;;3.40;1.75;;;;;;;;;;3593515;40;20029;-62
2021/05/31 14:50:37;;;;;;;2.65;1.63;;;;;;;;;;3594016;40;20133;-62
2021/05/31 14:53:03;;;;;;;3.53;1.80;;;;;;;;;;3596042;39;20032;-62
2021/05/31 14:55:28;;;;;;;3.17;1.70;;;;;;;;;;3593769;39;20040;-62
2021/05/31 14:57:54;;;;;;;7.53;1.95;;;;;;;;;;3592239;39;20392;-66
2021/05/31 15:00:22;;;;;;;4.07;1.70;;;;;;;;;;3594869;40;20260;-63
2021/05/31 15:02:48;;;;;;;5.53;1.95;;;;;;;;;;3595608;40;20028;-63
2021/05/31 15:05:17;;;;;;;4.00;1.67;;;;;;;;;;3592393;39;20109;-62